Monticello, AR

9:46 PM CDT on July 22, 2014 (GMT -0500)
RAWS UAM AR US (MAMOA4) Elev 183 ft | 33.59 °N, 91.81 °W | Change Station

Current weather conditions updated 46 minutes ago

Clear
Clear
76 °F
Feels Like 75 °F
N
0
Wind Variable Wind from North
Gusts 0.0 mph

Tomorrow is forecast to be Warmer than today.

Today
High -- | Low -- °F
--% Chance of Precip.
Yesterday
High -- | Low -- °F
Precip. -- in
6:12 AM 8:14 PM
Waning Crescent, 13% visible
Pressure 30.04 in
Visibility 10.0 miles
Clouds Clear
Heat Index 75 °F
Dew Point 76 °F
Humidity 99%
Rainfall 0.00 in
Snow Depth Not available.
UV 0 out of 12
Pollen 3.60 out of 12
Air Quality Not available.
Flu Activity Not available.
METAR KLLQ 230153Z AUTO 00000KT 10SM CLR 25/22 A3004 RMK AO2 SLP170 T02500222

More Conditions Fewer Conditions

Pressure 30.04 in
Visibility 10.0 miles
Clouds Clear
Heat Index 75 °F
Dew Point 76 °F
Humidity 99%
Rainfall 0.00 in
Snow Depth Not available.
UV 0 out of 12
Pollen 3.60 out of 12
Air Quality Not available.
Flu Activity Not available.
METAR KLLQ 230153Z AUTO 00000KT 10SM CLR 25/22 A3004 RMK AO2 SLP170 T02500222

More Conditions Fewer Conditions

10-Day Weather Forecast

Almanac

Astronomy

Jul. 22, 2014 Rise Set
Actual Time 6:12 AM CDT 8:14 PM CDT
Civil Twilight 5:44 AM CDT 8:42 PM CDT
Nautical Twilight 5:10 AM CDT 9:16 PM CDT
Astronomical Twilight 4:34 AM CDT 9:52 PM CDT
Moon 2:44 AM CDT (7/22) 4:53 PM CDT (7/22)
Length of Visible Light 14h 57m
Length of Day
14h 02m
Tomorrow will be 1m 19s shorter.
Waning Crescent, 13% of the Moon is Illuminated
Today
Waning Crescent
Jul 26
New
Aug 3
First Quarter
Aug 10
Full
Aug 17
Last Quarter

Today's Extremes

State Highs State Lows

Community

WunderPhotos

Upload Photos

1,736,460 photos uploaded!

Nearby

Snow Depth

Station Depth Elevation
No new snow has been reported.

Earthquake Activity

City Distance Mag. Time & Date
No recent earthquake activity has been reported nearby.
Minimum magnitude displayed is 2.5.

Coastal Water Temperatures

Place Temperature
No Stations Reporting

Nearby Weather Stations

Station Location Temp. Heat Index Dew Point Humidity Wind Precip. Elev Updated Type
RAWS UAM AR, Monticello, AR 76 °F 75 °F 76 °F 99% North  at  0 mph 0.00 in / hr 183 ft 9:00 PM CDT MADIS
MesoWest WNCSTR , Winchester, AR 80 °F 78 °F - - North  at  - 0.00 in / hr 162 ft 8:55 PM CDT MADIS
MesoWest DERMOT , Dermott, AR 80 °F 78 °F - - North  at  - 0.00 in / hr 143 ft 8:50 PM CDT MADIS

Show More Stations Show Fewer Stations